Aérodrome :
LOGIN :

S'inscrire | Disclaimer

   EN    FR    IT 

 










Légende :    VFR   VFR Marginal   IFR   IFR Intensif   IFR Très Intensif
Visi : 
Plafond : 
>= 8 km
>= 3000ft
5 à 8 km
1000 à 3000 ft
1500m à 5 km
500 à 1000 ft
800 à 1500m
200 à 500 ft
< 800m
< 200 ft
Symboles :   Orages  Brouillard  Fortes neiges  Fortes précipitations  Vent > 20 kt
SIGMETs :   Divers  Orages  Givrage  Turbulence  Onde Orograph.  Cendres Volcan.







- Altitude de l'aérodrome : 24 ft
- Code IATA : SGD


EKSB - Sonderborg

DERNIER METAR :
  • 261650Z 26013KT 230V290 9999 FEW015 SCT025TCU BKN045 10/05 Q1010

METARs EXPIRÉS :
  • 261620Z 26012KT 220V280 9999 SCT025TCU BKN045 10/05 Q1010
  • 261550Z 26012KT 9999 SCT025TCU BKN050 10/05 Q1010
  • 261520Z 27012KT 9999 -SHRA SCT025TCU BKN050 10/05 Q1009
  • 261450Z 26013KT 9999 SCT025TCU BKN050 10/05 Q1010
  • 261420Z 27014G24KT 240V300 9999 -SHRA SCT025TCU BKN060 10/05 Q1009
  • 261351Z 26015KT 230V290 9999 -SHRA FEW025TCU BKN030 11/06 Q1009

TAF TAF EKSB
Valide du 26 à 15h jusqu'au 26 à 22h UTC


261421Z 2615/2622 25015KT 9999 SCT020
Pas de NOTAMs connus pour ce terrain.



MET'MAP, la Météo Aéronautique d'un coup d'oeil ! - Copyright ORBIFLY Décembre 2007 - Disclaimer

ORBIFLY MET'MAP TEAM :

Programmation & Développement : Alexandra Zaïnal
Conception & Développement : Baudouin d'Aumeries
Co-Programmation & Développement : Marc-Olivier Méhu
Soutien technique & logistique : Manuel Goepfert

Contact : metmap@orbifly.com




SOURCES & CREDITS :

   NOAA